createdAt,value
2022-10-30T00:01:05.098Z,14.00
2022-10-30T00:05:08.932Z,13.90
2022-10-30T00:09:12.053Z,13.80
2022-10-30T00:13:16.464Z,13.70
2022-10-30T00:17:50.053Z,13.70
2022-10-30T00:21:53.095Z,13.70
2022-10-30T00:25:56.147Z,13.60
2022-10-30T00:30:00.592Z,13.60
2022-10-30T00:34:34.286Z,13.60
2022-10-30T00:38:37.343Z,13.50
2022-10-30T00:42:40.377Z,13.60
2022-10-30T00:46:44.808Z,13.50
2022-10-30T00:51:19.630Z,13.50
2022-10-30T00:55:25.984Z,13.50
2022-10-30T00:59:33.545Z,13.50
2022-10-30T01:04:08.693Z,13.60
2022-10-30T01:08:11.835Z,13.60
2022-10-30T01:12:15.187Z,13.50
2022-10-30T01:16:37.210Z,13.50
2022-10-30T01:21:13.136Z,13.40
2022-10-30T01:25:30.726Z,13.30
2022-10-30T01:29:47.226Z,13.30
2022-10-30T01:34:01.702Z,13.50
2022-10-30T01:38:11.406Z,13.60
2022-10-30T01:42:47.167Z,13.60
2022-10-30T01:47:05.138Z,13.70
2022-10-30T01:51:17.204Z,13.70
2022-10-30T01:55:32.379Z,13.60
2022-10-30T01:59:39.242Z,13.50
2022-10-30T02:03:42.448Z,13.40
2022-10-30T02:08:18.879Z,13.30
2022-10-30T02:12:24.396Z,13.20
2022-10-30T02:16:27.550Z,13.10
2022-10-30T02:21:06.675Z,13.00
2022-10-30T02:25:10.881Z,13.00
2022-10-30T02:29:14.241Z,13.00
2022-10-30T02:37:27.283Z,12.90
2022-10-30T02:41:30.311Z,12.90
2022-10-30T02:45:33.399Z,12.90
2022-10-30T02:49:36.431Z,12.90
2022-10-30T02:54:13.057Z,12.90
2022-10-30T02:58:18.049Z,12.90
2022-10-30T03:02:21.190Z,12.90
2022-10-30T03:06:57.872Z,12.80
2022-10-30T03:11:03.433Z,12.70
2022-10-30T03:15:09.267Z,12.60
2022-10-30T03:19:12.301Z,12.60
2022-10-30T03:23:15.334Z,12.70
2022-10-30T03:27:18.371Z,12.60
2022-10-30T03:31:56.849Z,12.50
2022-10-30T03:36:00.625Z,12.50
2022-10-30T03:40:03.662Z,12.50
2022-10-30T03:44:40.437Z,12.60
2022-10-30T03:49:18.990Z,12.50
2022-10-30T03:53:24.024Z,12.40
2022-10-30T03:57:30.084Z,12.40
2022-10-30T04:02:07.099Z,12.30
2022-10-30T04:06:45.362Z,12.20
2022-10-30T04:10:48.961Z,12.00
2022-10-30T04:15:22.979Z,12.00
2022-10-30T04:19:59.508Z,12.00
2022-10-30T04:24:03.981Z,12.10
2022-10-30T04:28:40.692Z,12.20
2022-10-30T04:32:47.897Z,12.20
2022-10-30T04:37:19.045Z,12.10
2022-10-30T04:41:23.482Z,12.00
2022-10-30T04:45:57.393Z,11.90
2022-10-30T04:50:00.604Z,11.80
2022-10-30T04:54:36.873Z,11.90
2022-10-30T04:58:41.721Z,11.90
2022-10-30T05:07:20.690Z,11.90
2022-10-30T05:11:24.117Z,11.80
2022-10-30T05:16:02.617Z,11.70
2022-10-30T05:20:36.242Z,11.60
2022-10-30T05:25:13.260Z,11.50
2022-10-30T05:29:50.429Z,11.40
2022-10-30T05:34:26.771Z,11.40
2022-10-30T05:38:31.204Z,11.30
2022-10-30T05:43:08.994Z,11.20
2022-10-30T05:47:12.782Z,11.20
2022-10-30T05:51:49.570Z,11.10
2022-10-30T05:56:27.679Z,11.10
2022-10-30T06:00:32.299Z,11.00
2022-10-30T06:05:06.292Z,11.00
2022-10-30T06:09:43.136Z,11.00
2022-10-30T06:14:21.221Z,11.00
2022-10-30T06:18:24.371Z,11.10
2022-10-30T06:23:02.262Z,11.20
2022-10-30T06:27:39.489Z,11.40
2022-10-30T06:32:15.823Z,11.60
2022-10-30T06:36:20.508Z,11.70
2022-10-30T06:40:54.305Z,11.80
2022-10-30T06:44:57.345Z,12.00
2022-10-30T06:49:34.130Z,12.10
2022-10-30T06:54:12.562Z,12.10
2022-10-30T06:58:46.366Z,12.10
2022-10-30T07:02:57.433Z,12.20
2022-10-30T07:07:25.448Z,12.30
2022-10-30T07:12:06.998Z,12.50
2022-10-30T07:16:38.088Z,12.70
2022-10-30T07:21:14.949Z,12.90
2022-10-30T07:25:51.926Z,13.10
2022-10-30T07:29:56.373Z,13.30
2022-10-30T07:34:29.833Z,13.50
2022-10-30T07:38:32.997Z,13.80
2022-10-30T07:42:35.987Z,13.90
2022-10-30T07:47:14.166Z,14.20
2022-10-30T07:51:51.179Z,14.40
2022-10-30T07:55:54.257Z,14.70
2022-10-30T08:00:31.124Z,14.90
2022-10-30T08:04:35.631Z,15.10
2022-10-30T08:09:09.758Z,15.20
2022-10-30T08:13:14.349Z,15.40
2022-10-30T08:17:17.418Z,15.60
2022-10-30T08:21:22.135Z,15.80
2022-10-30T08:25:27.374Z,16.00
2022-10-30T08:29:30.465Z,16.20
2022-10-30T08:33:33.685Z,16.40
2022-10-30T08:38:11.993Z,16.50
2022-10-30T08:42:15.149Z,16.80
2022-10-30T08:46:51.542Z,16.90
2022-10-30T08:51:28.465Z,17.10
2022-10-30T08:55:33.862Z,17.40
2022-10-30T09:00:10.817Z,17.50
2022-10-30T09:04:13.875Z,17.60
2022-10-30T09:08:50.673Z,17.80
2022-10-30T09:12:59.408Z,17.90
2022-10-30T09:17:04.441Z,17.90
2022-10-30T09:21:07.817Z,17.90
2022-10-30T09:25:10.953Z,17.90
2022-10-30T09:29:49.254Z,17.90
2022-10-30T09:34:23.373Z,17.90
2022-10-30T09:39:00.697Z,18.10
2022-10-30T09:43:41.378Z,18.20
2022-10-30T09:48:29.609Z,18.40
2022-10-30T09:53:03.574Z,18.50
2022-10-30T09:57:33.709Z,18.70
2022-10-30T10:02:10.736Z,18.80
2022-10-30T10:06:45.464Z,18.90
2022-10-30T10:11:20.156Z,19.20
2022-10-30T10:15:58.039Z,19.30
2022-10-30T10:20:02.962Z,19.50
2022-10-30T10:24:40.037Z,19.60
2022-10-30T10:29:13.869Z,19.70
2022-10-30T10:34:12.044Z,19.90
2022-10-30T10:38:56.236Z,20.00
2022-10-30T10:43:12.540Z,20.10
2022-10-30T10:47:35.553Z,20.10
2022-10-30T10:51:55.340Z,20.20
2022-10-30T10:56:00.758Z,20.30
2022-10-30T11:00:39.147Z,20.40
2022-10-30T11:04:44.736Z,20.50
2022-10-30T11:08:49.048Z,20.70
2022-10-30T11:13:24.802Z,20.80
2022-10-30T11:17:38.179Z,20.90
2022-10-30T11:21:46.140Z,21.10
2022-10-30T11:25:49.213Z,21.30
2022-10-30T11:29:55.954Z,21.50
2022-10-30T11:34:35.158Z,21.80
2022-10-30T11:38:38.297Z,22.10
2022-10-30T11:42:44.189Z,22.40
2022-10-30T11:46:47.621Z,22.40
2022-10-30T11:51:28.047Z,22.20
2022-10-30T11:55:37.599Z,22.20
2022-10-30T11:59:45.918Z,22.20
2022-10-30T12:03:49.161Z,22.30
2022-10-30T12:07:52.615Z,22.30
2022-10-30T12:12:33.313Z,22.20
2022-10-30T12:16:37.733Z,22.00
2022-10-30T12:20:40.850Z,21.90
2022-10-30T12:25:21.866Z,22.00
2022-10-30T12:30:02.728Z,22.10
2022-10-30T12:34:12.994Z,22.10
2022-10-30T12:38:37.764Z,22.20
2022-10-30T12:42:46.834Z,22.20
2022-10-30T12:46:57.331Z,22.20
2022-10-30T12:51:15.976Z,22.30
2022-10-30T12:55:26.763Z,22.30
2022-10-30T12:59:36.867Z,22.20
2022-10-30T13:03:50.192Z,22.20
2022-10-30T13:08:02.084Z,22.20
2022-10-30T13:12:10.864Z,22.30
2022-10-30T13:16:17.985Z,22.40
2022-10-30T13:20:23.807Z,22.40
2022-10-30T13:25:03.942Z,22.30
2022-10-30T13:29:38.843Z,22.20
2022-10-30T13:33:51.333Z,22.10
2022-10-30T13:38:26.535Z,22.10
2022-10-30T13:42:58.418Z,22.20
2022-10-30T13:47:13.892Z,22.30
2022-10-30T13:51:38.629Z,22.30
2022-10-30T13:55:44.752Z,22.30
2022-10-30T14:00:15.793Z,22.40
2022-10-30T14:04:25.897Z,22.40
2022-10-30T14:08:37.400Z,22.40
2022-10-30T14:13:15.297Z,22.40
2022-10-30T14:17:40.418Z,22.40
2022-10-30T14:22:16.717Z,22.40
2022-10-30T14:26:54.601Z,22.40
2022-10-30T14:31:37.150Z,22.30
2022-10-30T14:36:14.960Z,22.30
2022-10-30T14:40:39.166Z,22.20
2022-10-30T14:45:10.865Z,22.20
2022-10-30T14:49:47.910Z,22.10
2022-10-30T14:54:18.805Z,22.00
2022-10-30T14:58:26.077Z,21.90
2022-10-30T15:02:58.386Z,21.70
2022-10-30T15:07:09.198Z,21.50
2022-10-30T15:11:50.958Z,21.20
2022-10-30T15:16:17.629Z,20.80
2022-10-30T15:20:51.915Z,20.50
2022-10-30T15:25:24.924Z,20.20
2022-10-30T15:30:00.937Z,19.80
2022-10-30T15:34:04.351Z,19.40
2022-10-30T15:38:41.238Z,19.10
2022-10-30T15:43:17.955Z,18.80
2022-10-30T15:47:59.870Z,18.50
2022-10-30T15:52:05.754Z,18.30
2022-10-30T15:57:08.188Z,18.00
2022-10-30T16:01:26.013Z,17.80
2022-10-30T16:05:31.479Z,17.60
2022-10-30T16:09:34.643Z,17.40
2022-10-30T16:13:37.788Z,17.20
2022-10-30T16:18:20.537Z,16.80
2022-10-30T16:22:29.221Z,16.60
2022-10-30T16:27:03.558Z,16.30
2022-10-30T16:31:10.075Z,16.00
2022-10-30T16:35:13.275Z,15.80
2022-10-30T16:39:52.672Z,15.60
2022-10-30T16:44:27.797Z,15.70
2022-10-30T16:49:02.607Z,15.60
2022-10-30T16:53:07.236Z,15.60
2022-10-30T16:57:44.652Z,15.60
2022-10-30T17:01:55.154Z,15.50
2022-10-30T17:06:01.236Z,15.30
2022-10-30T17:10:36.030Z,15.10
2022-10-30T17:14:50.003Z,14.90
2022-10-30T17:19:35.373Z,14.80
2022-10-30T17:23:45.102Z,14.70
2022-10-30T17:27:50.386Z,14.70
2022-10-30T17:32:29.794Z,14.60
2022-10-30T17:36:32.940Z,14.60
2022-10-30T17:41:12.528Z,14.50
2022-10-30T17:45:46.952Z,14.30
2022-10-30T17:49:51.386Z,14.20
2022-10-30T17:54:25.093Z,14.00
2022-10-30T17:58:28.419Z,14.00
2022-10-30T18:02:31.498Z,14.00
2022-10-30T18:06:35.981Z,14.00
2022-10-30T18:11:11.310Z,13.80
2022-10-30T18:15:30.089Z,13.80
2022-10-30T18:20:00.899Z,13.80
2022-10-30T18:24:39.490Z,13.80
2022-10-30T18:29:13.223Z,13.70
2022-10-30T18:33:50.019Z,13.60
2022-10-30T18:38:26.869Z,13.60
2022-10-30T18:43:05.350Z,13.60
2022-10-30T18:47:40.297Z,13.60
2022-10-30T18:52:13.974Z,13.40
2022-10-30T18:56:50.772Z,13.20
2022-10-30T19:01:27.656Z,13.20
2022-10-30T19:05:35.325Z,13.10
2022-10-30T19:10:06.811Z,13.00
2022-10-30T19:14:40.576Z,12.90
2022-10-30T19:19:18.057Z,12.70
2022-10-30T19:23:56.949Z,12.60
2022-10-30T19:28:32.445Z,12.60
2022-10-30T19:33:06.116Z,12.50
2022-10-30T19:37:10.398Z,12.40
2022-10-30T19:41:14.862Z,12.30
2022-10-30T19:45:51.352Z,12.20
2022-10-30T19:50:27.098Z,12.10
2022-10-30T19:54:31.348Z,12.10
2022-10-30T19:59:06.947Z,12.00
2022-10-30T20:03:12.036Z,11.90
2022-10-30T20:07:15.173Z,11.80
2022-10-30T20:11:52.063Z,11.80
2022-10-30T20:15:57.949Z,11.80
2022-10-30T20:20:01.007Z,11.70
2022-10-30T20:24:05.049Z,11.60
2022-10-30T20:28:40.222Z,11.60
2022-10-30T20:33:15.341Z,11.60
2022-10-30T20:37:56.086Z,11.60
2022-10-30T20:41:59.231Z,11.50
2022-10-30T20:46:35.962Z,11.40
2022-10-30T20:51:14.843Z,11.40
2022-10-30T20:55:18.175Z,11.40
2022-10-30T20:59:21.680Z,11.30
2022-10-30T21:04:01.566Z,11.30
2022-10-30T21:08:07.151Z,11.30
2022-10-30T21:12:40.785Z,11.30
2022-10-30T21:16:44.129Z,11.40
2022-10-30T21:20:47.321Z,11.40
2022-10-30T21:25:25.651Z,11.30
2022-10-30T21:29:31.295Z,11.20
2022-10-30T21:34:05.202Z,11.10
2022-10-30T21:38:08.239Z,11.00
2022-10-30T21:42:48.377Z,10.90
2022-10-30T21:46:52.249Z,10.90
2022-10-30T21:50:55.591Z,10.80
2022-10-30T21:55:32.354Z,10.80
2022-10-30T21:59:36.801Z,10.70
2022-10-30T22:03:39.865Z,10.70
2022-10-30T22:08:18.300Z,10.70
2022-10-30T22:12:21.340Z,10.60
2022-10-30T22:16:59.565Z,10.40
2022-10-30T22:21:03.952Z,10.30
2022-10-30T22:25:41.788Z,10.30
2022-10-30T22:29:44.810Z,10.30
2022-10-30T22:33:49.438Z,10.20
2022-10-30T22:38:23.505Z,10.20
2022-10-30T22:42:26.557Z,10.20
2022-10-30T22:47:03.741Z,10.10
2022-10-30T22:51:13.532Z,10.10
2022-10-30T22:55:19.403Z,10.10
2022-10-30T22:59:22.878Z,10.20
2022-10-30T23:04:00.465Z,10.10
2022-10-30T23:08:05.268Z,10.00
2022-10-30T23:12:08.452Z,10.10
2022-10-30T23:16:45.441Z,10.00
2022-10-30T23:20:49.518Z,10.00
2022-10-30T23:24:53.934Z,9.90
2022-10-30T23:29:30.800Z,9.90
2022-10-30T23:34:08.544Z,10.00
2022-10-30T23:38:11.599Z,9.90
2022-10-30T23:42:16.465Z,9.80
2022-10-30T23:46:19.481Z,9.80
2022-10-30T23:50:22.598Z,9.80
2022-10-30T23:54:25.978Z,9.70
2022-10-30T23:58:59.879Z,9.60
